Time;durP1;ratioP1;P1;durP2;ratioP2;P2;SDS_P1;SDS_P2;PMS_P1;PMS_P2;Temp;Humidity;BMP_temperature;BMP_pressure;BME280_temperature;BME280_humidity;BME280_pressure;Samples;Min_cycle;Max_cycle;Signal;HPM_P1;HPM_P2
2023/05/27 00:02:20;;;;;;;20.80;4.20;;;;;;;;;;106959;1275;22653;-84
2023/05/27 00:04:55;;;;;;;17.50;3.60;;;;;;;;;;106907;1275;26560;-88
2023/05/27 00:07:24;;;;;;;16.20;3.70;;;;;;;;;;106910;1275;24986;-86
2023/05/27 00:09:54;;;;;;;16.90;3.60;;;;;;;;;;107077;1275;22996;-87
2023/05/27 00:12:21;;;;;;;16.40;3.30;;;;;;;;;;106890;1254;23910;-85
2023/05/27 00:14:51;;;;;;;15.00;3.70;;;;;;;;;;107091;1275;22528;-84
2023/05/27 00:17:17;;;;;;;21.00;4.00;;;;;;;;;;106879;1275;22761;-87
2023/05/27 00:19:53;;;;;;;18.10;3.40;;;;;;;;;;107120;1275;22525;-87
2023/05/27 00:22:21;;;;;;;18.10;4.20;;;;;;;;;;107012;1275;22732;-84
2023/05/27 00:24:47;;;;;;;16.40;3.60;;;;;;;;;;107081;1258;22523;-86
2023/05/27 00:27:14;;;;;;;14.70;3.20;;;;;;;;;;107000;1275;21765;-87
2023/05/27 00:29:41;;;;;;;15.40;3.40;;;;;;;;;;106870;1275;24359;-85
2023/05/27 00:32:08;;;;;;;14.30;3.70;;;;;;;;;;107016;1275;22524;-87
2023/05/27 00:34:35;;;;;;;15.20;3.90;;;;;;;;;;107068;1267;22517;-82
2023/05/27 00:37:02;;;;;;;13.40;3.80;;;;;;;;;;107166;1275;25353;-82
2023/05/27 00:39:31;;;;;;;18.50;3.90;;;;;;;;;;107128;1275;22522;-84
2023/05/27 00:41:58;;;;;;;15.80;3.70;;;;;;;;;;107059;1275;22527;-86
2023/05/27 00:44:25;;;;;;;14.20;4.00;;;;;;;;;;107018;1254;22524;-85
2023/05/27 00:46:54;;;;;;;14.30;3.80;;;;;;;;;;107007;1275;22549;-86
2023/05/27 00:49:21;;;;;;;15.80;3.80;;;;;;;;;;107101;1275;22541;-83
2023/05/27 00:51:48;;;;;;;16.90;4.00;;;;;;;;;;106995;1275;21761;-83
2023/05/27 00:54:15;;;;;;;14.40;3.80;;;;;;;;;;106979;1275;22534;-88
2023/05/27 00:56:48;;;;;;;14.30;3.10;;;;;;;;;;106999;1275;22531;-83
2023/05/27 00:59:18;;;;;;;14.60;3.40;;;;;;;;;;106946;1275;24190;-82
2023/05/27 01:01:49;;;;;;;19.50;4.10;;;;;;;;;;106929;1275;22533;-82
2023/05/27 01:04:19;;;;;;;15.80;3.60;;;;;;;;;;106993;1257;22539;-89
2023/05/27 01:06:58;;;;;;;14.70;4.00;;;;;;;;;;107082;1275;22528;-85
2023/05/27 01:09:39;;;;;;;16.30;4.00;;;;;;;;;;106978;1275;22520;-89
2023/05/27 01:12:29;;;;;;;14.50;3.70;;;;;;;;;;107032;1275;22518;-84
2023/05/27 01:15:36;;;;;;;14.80;3.60;;;;;;;;;;107053;1257;25482;-89
2023/05/27 01:18:23;;;;;;;15.80;4.30;;;;;;;;;;106920;1275;22519;-85
2023/05/27 01:20:55;;;;;;;14.30;3.40;;;;;;;;;;107083;1275;22536;-86
2023/05/27 01:23:24;;;;;;;15.30;3.70;;;;;;;;;;107101;1275;25223;-87
2023/05/27 01:25:51;;;;;;;16.00;3.90;;;;;;;;;;106960;1257;22792;-87
2023/05/27 01:28:18;;;;;;;15.30;3.40;;;;;;;;;;107014;1257;22647;-84
2023/05/27 01:30:50;;;;;;;15.80;3.60;;;;;;;;;;107024;1275;24349;-87
2023/05/27 01:33:19;;;;;;;15.80;4.80;;;;;;;;;;107068;1275;22537;-90
2023/05/27 01:36:06;;;;;;;19.60;4.30;;;;;;;;;;106971;1257;22520;-89
2023/05/27 01:38:35;;;;;;;16.90;4.50;;;;;;;;;;107158;1275;25420;-86
2023/05/27 01:41:04;;;;;;;16.90;4.20;;;;;;;;;;107107;1275;24215;-85
2023/05/27 01:43:35;;;;;;;17.80;4.40;;;;;;;;;;107173;1275;26426;-86
2023/05/27 01:46:08;;;;;;;19.10;4.20;;;;;;;;;;107095;1269;25355;-85
2023/05/27 01:48:38;;;;;;;16.30;4.10;;;;;;;;;;107209;1275;23138;-84
2023/05/27 01:51:08;;;;;;;17.30;3.70;;;;;;;;;;106977;1275;24291;-87
2023/05/27 01:53:38;;;;;;;16.00;3.40;;;;;;;;;;107051;1275;22549;-87
2023/05/27 01:56:29;;;;;;;15.20;3.60;;;;;;;;;;106967;1257;25466;-86
2023/05/27 01:58:58;;;;;;;15.70;3.60;;;;;;;;;;106907;1275;23124;-84
2023/05/27 02:01:28;;;;;;;18.20;4.10;;;;;;;;;;107120;1271;22525;-89
2023/05/27 02:04:05;;;;;;;17.00;4.60;;;;;;;;;;104638;1275;3135526;-87
2023/05/27 02:06:45;;;;;;;;;;;;;;;;;;;;;
2023/05/27 02:09:23;;;;;;;23.40;4.60;;;;;;;;;;106920;1275;24708;-89
2023/05/27 02:11:50;;;;;;;17.60;4.40;;;;;;;;;;106907;1275;23256;-84
2023/05/27 02:14:38;;;;;;;17.30;4.50;;;;;;;;;;107104;1275;22529;-86
2023/05/27 02:17:05;;;;;;;18.20;4.80;;;;;;;;;;106999;1257;24183;-87
2023/05/27 02:19:35;;;;;;;15.60;4.30;;;;;;;;;;106925;1275;25322;-82
2023/05/27 02:22:02;;;;;;;16.80;3.90;;;;;;;;;;107112;1275;25328;-84
2023/05/27 02:24:32;;;;;;;14.20;3.30;;;;;;;;;;107002;1275;22597;-83
2023/05/27 02:27:09;;;;;;;14.00;3.40;;;;;;;;;;106941;1266;25334;-84
2023/05/27 02:29:36;;;;;;;15.70;3.70;;;;;;;;;;106924;1275;24384;-85
2023/05/27 02:32:15;;;;;;;15.50;3.90;;;;;;;;;;106905;1275;22519;-87
2023/05/27 02:35:04;;;;;;;21.90;4.70;;;;;;;;;;107062;1275;25300;-87
2023/05/27 02:37:31;;;;;;;18.40;4.70;;;;;;;;;;107116;1267;22527;-82
2023/05/27 02:40:12;;;;;;;20.80;4.30;;;;;;;;;;106921;1275;23873;-86
2023/05/27 02:42:39;;;;;;;15.90;4.00;;;;;;;;;;106916;1275;23929;-87
2023/05/27 02:45:25;;;;;;;18.10;4.70;;;;;;;;;;107107;1275;22520;-88
2023/05/27 02:47:59;;;;;;;19.20;4.60;;;;;;;;;;106950;1257;22523;-84
2023/05/27 02:50:31;;;;;;;20.10;3.90;;;;;;;;;;106978;1266;25226;-86
2023/05/27 02:52:58;;;;;;;17.40;3.60;;;;;;;;;;106913;1275;22530;-85
2023/05/27 02:55:28;;;;;;;14.00;3.50;;;;;;;;;;106854;1275;24249;-88
2023/05/27 02:57:58;;;;;;;15.70;3.60;;;;;;;;;;106867;1275;22527;-83
2023/05/27 03:00:28;;;;;;;17.00;4.20;;;;;;;;;;106921;1275;22585;-83
2023/05/27 03:02:54;;;;;;;19.20;4.00;;;;;;;;;;107036;1275;24551;-84
2023/05/27 03:05:29;;;;;;;13.80;4.00;;;;;;;;;;107036;1275;22536;-83
2023/05/27 03:07:58;;;;;;;17.40;3.50;;;;;;;;;;107017;1258;22820;-84
2023/05/27 03:10:30;;;;;;;16.00;4.20;;;;;;;;;;106877;1275;25331;-86
2023/05/27 03:12:57;;;;;;;17.80;4.00;;;;;;;;;;106932;1275;25376;-82
2023/05/27 03:15:44;;;;;;;14.50;3.90;;;;;;;;;;107005;1275;24368;-86
2023/05/27 03:18:17;;;;;;;17.10;4.10;;;;;;;;;;107056;1256;22526;-89
2023/05/27 03:20:47;;;;;;;15.40;3.50;;;;;;;;;;106927;1262;22601;-87
2023/05/27 03:23:17;;;;;;;12.60;3.40;;;;;;;;;;106975;1275;25318;-84
2023/05/27 03:25:53;;;;;;;17.90;3.70;;;;;;;;;;106972;1275;22486;-85
2023/05/27 03:28:20;;;;;;;19.40;4.20;;;;;;;;;;106984;1257;22587;-86
2023/05/27 03:30:48;;;;;;;15.90;4.20;;;;;;;;;;107130;1275;24350;-86
2023/05/27 03:33:24;;;;;;;13.20;3.60;;;;;;;;;;106940;1275;22527;-87
2023/05/27 03:35:51;;;;;;;16.10;4.20;;;;;;;;;;106962;1269;25600;-82
2023/05/27 03:38:38;;;;;;;17.70;4.20;;;;;;;;;;106889;1259;22517;-87
2023/05/27 03:41:06;;;;;;;14.00;3.80;;;;;;;;;;107164;1275;24250;-82
2023/05/27 03:43:33;;;;;;;16.70;3.90;;;;;;;;;;107237;1260;22553;-82
2023/05/27 03:46:06;;;;;;;12.40;3.20;;;;;;;;;;107125;1275;24048;-83
2023/05/27 03:48:33;;;;;;;19.50;3.80;;;;;;;;;;107101;1275;25344;-85
2023/05/27 03:51:01;;;;;;;18.00;3.80;;;;;;;;;;107172;1275;22494;-82
2023/05/27 03:53:27;;;;;;;18.20;3.90;;;;;;;;;;107114;1275;22952;-89
2023/05/27 03:55:55;;;;;;;19.30;4.00;;;;;;;;;;106919;1266;24104;-83
2023/05/27 03:58:22;;;;;;;22.10;4.90;;;;;;;;;;107100;1256;25350;-82
2023/05/27 04:00:52;;;;;;;18.30;5.10;;;;;;;;;;107131;1275;22622;-83
2023/05/27 04:03:22;;;;;;;16.70;4.60;;;;;;;;;;106866;1275;25494;-85
2023/05/27 04:06:05;;;;;;;18.00;4.60;;;;;;;;;;107106;1275;22513;-87
2023/05/27 04:08:32;;;;;;;13.50;4.00;;;;;;;;;;106988;1253;24642;-82
2023/05/27 04:11:19;;;;;;;22.30;5.20;;;;;;;;;;106952;1275;22552;-86
2023/05/27 04:13:56;;;;;;;16.00;3.70;;;;;;;;;;107110;1275;22573;-86
2023/05/27 04:16:24;;;;;;;15.20;3.90;;;;;;;;;;107117;1275;22491;-83
2023/05/27 04:18:54;;;;;;;17.40;4.00;;;;;;;;;;106952;1258;24903;-86
2023/05/27 04:21:21;;;;;;;17.40;4.10;;;;;;;;;;107094;1275;22529;-88
2023/05/27 04:23:54;;;;;;;14.90;4.20;;;;;;;;;;106997;1266;22665;-83
2023/05/27 04:26:27;;;;;;;17.80;4.40;;;;;;;;;;107079;1275;24246;-83
2023/05/27 04:28:54;;;;;;;18.80;4.20;;;;;;;;;;106882;1257;24204;-89
2023/05/27 04:31:22;;;;;;;18.50;5.10;;;;;;;;;;106877;1275;25779;-84
2023/05/27 04:34:13;;;;;;;11.40;3.90;;;;;;;;;;106980;1275;25330;-84
2023/05/27 04:36:42;;;;;;;18.10;4.70;;;;;;;;;;107018;1253;24189;-83
2023/05/27 04:39:14;;;;;;;18.90;5.30;;;;;;;;;;107020;1257;22641;-86
2023/05/27 04:41:43;;;;;;;17.50;5.00;;;;;;;;;;106865;1275;22505;-88
2023/05/27 04:44:32;;;;;;;18.60;4.50;;;;;;;;;;107054;1275;22517;-84
2023/05/27 04:47:00;;;;;;;15.90;3.80;;;;;;;;;;106891;1270;22668;-86
2023/05/27 04:50:15;;;;;;;16.70;4.50;;;;;;;;;;106968;1257;25304;-83
2023/05/27 04:52:21;;;;;;;19.30;4.50;;;;;;;;;;107107;1275;25348;-86
2023/05/27 04:54:48;;;;;;;19.00;4.70;;;;;;;;;;106885;1275;24196;-89
2023/05/27 04:57:45;;;;;;;17.70;4.70;;;;;;;;;;106905;1275;22625;-83
2023/05/27 05:00:22;;;;;;;17.90;4.10;;;;;;;;;;106909;1275;24247;-85
2023/05/27 05:02:49;;;;;;;18.90;4.80;;;;;;;;;;106964;1275;24221;-85
2023/05/27 05:05:17;;;;;;;18.60;4.50;;;;;;;;;;106902;1275;25400;-85
2023/05/27 05:08:07;;;;;;;18.20;4.30;;;;;;;;;;107094;1275;22505;-90
2023/05/27 05:10:35;;;;;;;16.10;3.90;;;;;;;;;;106865;1259;22523;-87
2023/05/27 05:13:07;;;;;;;15.00;3.40;;;;;;;;;;106914;1276;22542;-84
2023/05/27 05:15:37;;;;;;;17.60;4.30;;;;;;;;;;106901;1276;24900;-85
2023/05/27 05:18:10;;;;;;;19.40;4.20;;;;;;;;;;106885;1276;25332;-83
2023/05/27 05:20:58;;;;;;;18.30;4.60;;;;;;;;;;106959;1257;22610;-85
2023/05/27 05:23:35;;;;;;;14.70;4.20;;;;;;;;;;106661;1280;25402;-82
2023/05/27 05:26:06;;;;;;;16.80;4.00;;;;;;;;;;106630;1280;23513;-89
2023/05/27 05:28:34;;;;;;;16.60;4.20;;;;;;;;;;106458;1280;23874;-86
2023/05/27 05:31:01;;;;;;;17.20;4.50;;;;;;;;;;106774;1261;22533;-79
2023/05/27 05:33:51;;;;;;;18.10;3.80;;;;;;;;;;106688;1280;25415;-87
2023/05/27 05:36:17;;;;;;;15.90;3.90;;;;;;;;;;106628;1276;22546;-84
2023/05/27 05:39:21;;;;;;;;;;;;;;;;;;;;;
2023/05/27 05:42:08;;;;;;;20.10;4.70;;;;;;;;;;106729;1280;25284;-83
2023/05/27 05:44:35;;;;;;;20.90;4.60;;;;;;;;;;106558;1280;23867;-87
2023/05/27 05:47:03;;;;;;;15.80;4.40;;;;;;;;;;106729;1280;25526;-82
2023/05/27 05:49:30;;;;;;;22.20;5.00;;;;;;;;;;106659;1280;24364;-84
2023/05/27 05:52:00;;;;;;;15.70;4.20;;;;;;;;;;106634;1262;25335;-82
2023/05/27 05:54:54;;;;;;;;;;;;;;;;;;;;;
2023/05/27 05:57:34;;;;;;;;;;;;;;;;;;;;;
2023/05/27 06:00:23;;;;;;;17.60;5.00;;;;;;;;;;107030;1275;22493;-78
2023/05/27 06:02:54;;;;;;;21.90;4.90;;;;;;;;;;106945;1275;22520;-84
2023/05/27 06:05:44;;;;;;;16.20;4.20;;;;;;;;;;107008;1275;22633;-86
2023/05/27 06:08:16;;;;;;;17.60;4.20;;;;;;;;;;106913;1275;24360;-89
2023/05/27 06:11:14;;;;;;;18.30;4.80;;;;;;;;;;106952;1275;25334;-86
2023/05/27 06:14:06;;;;;;;14.90;4.40;;;;;;;;;;107210;1265;22519;-85
2023/05/27 06:16:39;;;;;;;16.90;4.60;;;;;;;;;;106972;1275;22517;-87
2023/05/27 06:19:09;;;;;;;14.70;4.40;;;;;;;;;;106883;1275;22517;-87
2023/05/27 06:21:36;;;;;;;17.80;5.30;;;;;;;;;;106912;1275;25334;-80
2023/05/27 06:24:46;;;;;;;20.20;5.10;;;;;;;;;;106942;1256;22994;-86
2023/05/27 06:27:25;;;;;;;18.50;4.50;;;;;;;;;;107153;1275;22513;-85
2023/05/27 06:29:51;;;;;;;17.30;4.60;;;;;;;;;;106979;1275;25253;-80
2023/05/27 06:32:27;;;;;;;17.10;4.40;;;;;;;;;;107109;1254;22816;-85
2023/05/27 06:34:53;;;;;;;16.60;4.60;;;;;;;;;;106901;1275;22743;-83
2023/05/27 06:37:20;;;;;;;17.00;4.50;;;;;;;;;;106992;1275;22523;-89
2023/05/27 06:39:47;;;;;;;17.40;5.10;;;;;;;;;;107120;1275;25370;-87
2023/05/27 06:42:14;;;;;;;21.00;5.60;;;;;;;;;;106925;1275;26573;-82
2023/05/27 06:45:07;;;;;;;15.70;4.50;;;;;;;;;;106949;1275;24215;-89
2023/05/27 06:47:35;;;;;;;18.70;4.80;;;;;;;;;;107173;1272;22647;-86
2023/05/27 06:50:02;;;;;;;14.40;3.70;;;;;;;;;;106990;1275;24180;-83
2023/05/27 06:52:30;;;;;;;19.70;5.10;;;;;;;;;;106911;1275;24875;-85
2023/05/27 06:55:19;;;;;;;17.30;4.20;;;;;;;;;;107024;1275;23908;-91
2023/05/27 06:58:06;;;;;;;19.10;5.60;;;;;;;;;;107036;1275;24259;-84
2023/05/27 07:00:54;;;;;;;15.70;4.40;;;;;;;;;;107007;1275;24567;-84
2023/05/27 07:03:57;;;;;;;17.90;5.00;;;;;;;;;;107039;1257;24358;-90
2023/05/27 07:06:40;;;;;;;17.60;5.40;;;;;;;;;;106969;1275;24387;-85
2023/05/27 07:09:07;;;;;;;17.50;5.00;;;;;;;;;;107147;1275;25456;-86
2023/05/27 07:11:35;;;;;;;17.10;4.50;;;;;;;;;;106974;1275;22624;-88
2023/05/27 07:14:05;;;;;;;12.90;4.00;;;;;;;;;;107022;1256;22533;-92
2023/05/27 07:16:33;;;;;;;18.60;5.10;;;;;;;;;;106957;1275;22521;-83
2023/05/27 07:19:00;;;;;;;22.60;5.00;;;;;;;;;;106981;1275;24199;-86
2023/05/27 07:21:28;;;;;;;17.70;4.70;;;;;;;;;;106964;1266;22529;-84
2023/05/27 07:23:58;;;;;;;19.60;4.50;;;;;;;;;;106738;1263;22630;-84
2023/05/27 07:26:36;;;;;;;16.60;4.40;;;;;;;;;;107162;1275;25262;-83
2023/05/27 07:29:03;;;;;;;20.10;4.80;;;;;;;;;;107093;1275;24269;-85
2023/05/27 07:31:56;;;;;;;18.70;4.80;;;;;;;;;;107010;1275;25318;-86
2023/05/27 07:34:29;;;;;;;16.60;4.50;;;;;;;;;;107081;1256;22657;-91
2023/05/27 07:36:56;;;;;;;15.10;4.30;;;;;;;;;;107202;1275;24200;-85
2023/05/27 07:39:26;;;;;;;17.10;4.20;;;;;;;;;;106974;1275;23622;-86
2023/05/27 07:41:54;;;;;;;21.10;4.70;;;;;;;;;;107095;1252;22523;-84
2023/05/27 07:44:21;;;;;;;18.60;4.30;;;;;;;;;;106935;1275;24381;-90
2023/05/27 07:46:48;;;;;;;16.20;4.00;;;;;;;;;;106999;1275;24254;-87
2023/05/27 07:49:18;;;;;;;13.40;3.60;;;;;;;;;;107115;1267;25338;-86
2023/05/27 07:52:04;;;;;;;15.60;3.60;;;;;;;;;;107092;1266;22517;-83
2023/05/27 07:54:31;;;;;;;16.40;4.10;;;;;;;;;;106967;1251;22556;-89
2023/05/27 07:56:57;;;;;;;15.80;3.50;;;;;;;;;;107170;1272;22551;-83
2023/05/27 07:59:25;;;;;;;13.10;3.40;;;;;;;;;;107003;1267;24243;-83
2023/05/27 08:01:52;;;;;;;14.80;3.10;;;;;;;;;;107091;1270;24339;-81
2023/05/27 08:04:22;;;;;;;20.00;3.30;;;;;;;;;;107133;1266;26472;-83
2023/05/27 08:07:08;;;;;;;13.10;3.20;;;;;;;;;;107005;1256;25363;-83
2023/05/27 08:09:48;;;;;;;12.70;3.80;;;;;;;;;;106979;1269;26446;-82
2023/05/27 08:12:44;;;;;;;13.90;3.40;;;;;;;;;;107054;1267;22523;-83
2023/05/27 08:15:25;;;;;;;19.20;4.50;;;;;;;;;;107022;1256;22644;-82
2023/05/27 08:18:05;;;;;;;16.70;3.70;;;;;;;;;;106912;1270;22532;-83
2023/05/27 08:20:46;;;;;;;14.80;3.30;;;;;;;;;;107022;1270;22625;-83
2023/05/27 08:23:33;;;;;;;13.10;3.60;;;;;;;;;;106999;1274;23624;-83
2023/05/27 08:26:29;;;;;;;16.60;3.30;;;;;;;;;;106833;1274;24387;-82
2023/05/27 08:29:09;;;;;;;12.60;3.10;;;;;;;;;;107065;1270;22559;-85
2023/05/27 08:31:59;;;;;;;13.70;2.90;;;;;;;;;;107259;1267;22529;-86
2023/05/27 08:34:30;;;;;;;12.40;3.00;;;;;;;;;;107102;1268;22524;-86
2023/05/27 08:36:59;;;;;;;15.80;3.10;;;;;;;;;;107094;1255;24264;-83
2023/05/27 08:39:34;;;;;;;12.30;3.20;;;;;;;;;;106972;1269;25542;-83
2023/05/27 08:42:17;;;;;;;14.50;3.60;;;;;;;;;;107148;1250;24212;-82
2023/05/27 08:44:45;;;;;;;12.50;2.80;;;;;;;;;;107159;1267;22604;-81
2023/05/27 08:47:14;;;;;;;15.00;3.20;;;;;;;;;;106883;1257;22522;-86
2023/05/27 08:49:41;;;;;;;11.40;2.80;;;;;;;;;;106976;1271;22523;-82
2023/05/27 08:52:14;;;;;;;10.70;2.60;;;;;;;;;;106859;1274;25204;-81
2023/05/27 08:54:52;;;;;;;11.40;2.70;;;;;;;;;;106900;1270;23874;-81
2023/05/27 08:57:21;;;;;;;11.30;2.70;;;;;;;;;;107089;1256;25329;-84
2023/05/27 08:59:48;;;;;;;13.90;2.90;;;;;;;;;;107112;1269;22733;-85
2023/05/27 09:02:15;;;;;;;12.10;3.00;;;;;;;;;;107101;1269;24187;-81
2023/05/27 09:04:46;;;;;;;11.80;3.10;;;;;;;;;;107075;1275;22563;-86
2023/05/27 09:07:13;;;;;;;10.90;2.60;;;;;;;;;;107248;1257;22504;-84
2023/05/27 09:09:55;;;;;;;13.50;2.90;;;;;;;;;;107112;1275;22521;-86
2023/05/27 09:12:28;;;;;;;10.40;2.40;;;;;;;;;;107031;1275;25535;-84
2023/05/27 09:14:55;;;;;;;15.10;2.90;;;;;;;;;;106971;1275;22543;-89
2023/05/27 09:17:22;;;;;;;12.40;3.20;;;;;;;;;;106963;1269;25213;-83
2023/05/27 09:19:51;;;;;;;13.90;2.90;;;;;;;;;;107055;1269;23429;-85
2023/05/27 09:22:36;;;;;;;11.60;2.50;;;;;;;;;;107054;1275;25320;-87
2023/05/27 09:25:07;;;;;;;10.70;2.80;;;;;;;;;;107072;1275;24242;-84
2023/05/27 09:27:45;;;;;;;13.50;3.20;;;;;;;;;;107056;1256;22598;-81
2023/05/27 09:30:15;;;;;;;15.60;3.50;;;;;;;;;;107011;1272;22946;-81
2023/05/27 09:32:46;;;;;;;12.30;3.30;;;;;;;;;;107066;1275;22523;-86
2023/05/27 09:35:13;;;;;;;15.50;3.90;;;;;;;;;;107038;1263;24167;-89
2023/05/27 09:37:40;;;;;;;14.00;2.90;;;;;;;;;;107070;1275;24195;-84
2023/05/27 09:40:12;;;;;;;16.10;4.20;;;;;;;;;;106955;1272;22527;-86
2023/05/27 09:43:01;;;;;;;15.10;3.20;;;;;;;;;;106986;1275;22586;-82
2023/05/27 09:45:27;;;;;;;14.50;3.20;;;;;;;;;;107105;1269;22607;-82
2023/05/27 09:47:55;;;;;;;12.00;2.80;;;;;;;;;;106957;1255;22663;-84
2023/05/27 09:50:22;;;;;;;12.80;3.10;;;;;;;;;;106844;1269;22583;-84
2023/05/27 09:52:49;;;;;;;12.50;3.20;;;;;;;;;;106913;1269;22517;-82
2023/05/27 09:55:17;;;;;;;12.60;3.10;;;;;;;;;;107061;1270;24271;-83
2023/05/27 09:58:05;;;;;;;10.00;2.70;;;;;;;;;;107058;1256;25268;-82
2023/05/27 10:00:42;;;;;;;12.50;2.90;;;;;;;;;;107156;1274;25269;-88
2023/05/27 10:03:10;;;;;;;10.80;2.70;;;;;;;;;;107162;1274;23881;-84
2023/05/27 10:05:37;;;;;;;12.40;2.80;;;;;;;;;;107215;1274;22519;-84
2023/05/27 10:08:04;;;;;;;10.50;3.50;;;;;;;;;;107092;1256;22511;-83
2023/05/27 10:10:32;;;;;;;11.30;3.20;;;;;;;;;;107092;1274;22527;-84
2023/05/27 10:13:00;;;;;;;16.80;4.00;;;;;;;;;;107068;1272;22543;-83
2023/05/27 10:15:31;;;;;;;10.90;2.70;;;;;;;;;;107081;1275;25328;-85
2023/05/27 10:17:59;;;;;;;11.40;2.70;;;;;;;;;;107031;1256;25503;-82
2023/05/27 10:20:29;;;;;;;13.70;3.50;;;;;;;;;;107128;1272;22511;-83
2023/05/27 10:23:08;;;;;;;10.30;2.60;;;;;;;;;;107065;1275;22527;-81
2023/05/27 10:25:36;;;;;;;10.40;3.00;;;;;;;;;;107055;1275;22523;-80
2023/05/27 10:28:06;;;;;;;9.10;2.60;;;;;;;;;;106950;1275;22528;-82
2023/05/27 10:30:46;;;;;;;10.40;3.10;;;;;;;;;;106790;1275;22751;-79
2023/05/27 10:33:13;;;;;;;8.50;2.60;;;;;;;;;;106865;1275;22989;-84
2023/05/27 10:35:43;;;;;;;8.50;2.40;;;;;;;;;;107058;1275;24317;-86
2023/05/27 10:38:14;;;;;;;12.70;3.30;;;;;;;;;;107077;1256;22521;-88
2023/05/27 10:40:41;;;;;;;12.10;3.10;;;;;;;;;;107079;1275;25332;-84
2023/05/27 10:43:15;;;;;;;19.50;3.80;;;;;;;;;;107033;1266;23867;-83
2023/05/27 10:45:42;;;;;;;9.60;2.40;;;;;;;;;;107027;1266;22527;-86
2023/05/27 10:48:16;;;;;;;10.70;2.30;;;;;;;;;;110630;1253;22134;-82
2023/05/27 10:50:52;;;;;;;10.00;2.50;;;;;;;;;;110563;1273;22140;-80
2023/05/27 10:53:22;;;;;;;21.40;7.40;;;;;;;;;;110612;1274;22128;-82
2023/05/27 10:55:51;;;;;;;21.00;8.70;;;;;;;;;;110648;1274;22438;-78
2023/05/27 10:58:25;;;;;;;11.50;3.60;;;;;;;;;;110639;1250;22720;-82
2023/05/27 11:00:56;;;;;;;10.50;2.80;;;;;;;;;;110662;1274;22109;-83
2023/05/27 11:03:29;;;;;;;15.90;6.00;;;;;;;;;;110634;1274;22104;-80
2023/05/27 11:05:57;;;;;;;10.00;2.90;;;;;;;;;;110581;1269;23095;-80
2023/05/27 11:08:24;;;;;;;11.20;2.70;;;;;;;;;;110648;1250;22691;-80
2023/05/27 11:10:56;;;;;;;11.10;2.80;;;;;;;;;;110353;1274;22287;-81
2023/05/27 11:13:29;;;;;;;8.60;2.40;;;;;;;;;;110639;1274;22149;-81
2023/05/27 11:15:55;;;;;;;9.00;3.00;;;;;;;;;;110624;1274;22157;-79
2023/05/27 11:18:22;;;;;;;13.00;5.80;;;;;;;;;;110658;1274;22433;-79
2023/05/27 11:20:49;;;;;;;13.50;5.70;;;;;;;;;;110756;1255;22222;-78
2023/05/27 11:23:16;;;;;;;11.00;3.80;;;;;;;;;;110618;1274;21986;-81
2023/05/27 11:25:47;;;;;;;10.60;2.60;;;;;;;;;;110607;1266;22126;-82
2023/05/27 11:28:17;;;;;;;11.30;3.00;;;;;;;;;;110657;1274;22144;-79
2023/05/27 11:30:44;;;;;;;9.90;2.50;;;;;;;;;;110662;1255;22114;-79
2023/05/27 11:33:11;;;;;;;9.20;2.70;;;;;;;;;;110624;1274;22093;-78
2023/05/27 11:35:37;;;;;;;9.70;2.50;;;;;;;;;;110670;1274;22164;-78
2023/05/27 11:38:16;;;;;;;10.10;2.30;;;;;;;;;;110674;1274;22768;-83
2023/05/27 11:40:43;;;;;;;11.10;2.70;;;;;;;;;;110663;1256;23015;-82
2023/05/27 11:43:18;;;;;;;10.30;2.50;;;;;;;;;;110680;1274;23178;-81
2023/05/27 11:45:45;;;;;;;10.30;2.80;;;;;;;;;;110630;1274;22384;-80
2023/05/27 11:48:13;;;;;;;11.30;4.40;;;;;;;;;;110671;1274;23137;-78
2023/05/27 11:50:39;;;;;;;9.20;3.00;;;;;;;;;;110688;1255;22576;-78
2023/05/27 11:53:06;;;;;;;10.10;2.70;;;;;;;;;;110680;1275;22084;-82
2023/05/27 11:55:33;;;;;;;10.40;3.50;;;;;;;;;;110655;1275;22120;-81
2023/05/27 11:58:07;;;;;;;9.70;2.90;;;;;;;;;;110628;1274;22090;-82
2023/05/27 12:01:00;;;;;;;9.60;3.00;;;;;;;;;;110672;1253;22244;-83
2023/05/27 12:03:27;;;;;;;11.50;4.20;;;;;;;;;;110600;1275;22086;-78
2023/05/27 12:05:53;;;;;;;12.10;3.30;;;;;;;;;;110645;1275;22089;-80
2023/05/27 12:08:20;;;;;;;11.90;3.00;;;;;;;;;;110516;1275;22740;-80
2023/05/27 12:10:50;;;;;;;9.90;3.10;;;;;;;;;;110661;1256;22797;-80
2023/05/27 12:13:17;;;;;;;11.20;3.40;;;;;;;;;;110649;1275;23014;-79
2023/05/27 12:15:43;;;;;;;12.00;3.20;;;;;;;;;;110656;1274;22081;-81
2023/05/27 12:18:10;;;;;;;18.70;4.50;;;;;;;;;;110634;1275;22791;-83
2023/05/27 12:20:37;;;;;;;12.10;3.70;;;;;;;;;;110640;1258;22166;-79
2023/05/27 12:23:03;;;;;;;10.90;3.30;;;;;;;;;;110637;1274;22210;-79
2023/05/27 12:25:32;;;;;;;11.70;3.10;;;;;;;;;;110653;1274;22928;-80
2023/05/27 12:27:58;;;;;;;12.00;3.20;;;;;;;;;;110635;1274;22138;-78
2023/05/27 12:30:25;;;;;;;10.00;3.50;;;;;;;;;;110680;1256;22104;-79
2023/05/27 12:32:52;;;;;;;11.10;3.10;;;;;;;;;;110629;1274;22786;-77
2023/05/27 12:35:18;;;;;;;12.50;3.50;;;;;;;;;;110659;1275;22130;-81
2023/05/27 12:37:45;;;;;;;13.50;3.50;;;;;;;;;;110605;1274;22086;-78
2023/05/27 12:40:14;;;;;;;12.90;3.80;;;;;;;;;;110611;1251;22352;-80
2023/05/27 12:42:41;;;;;;;11.40;3.70;;;;;;;;;;110625;1275;22443;-79
2023/05/27 12:45:09;;;;;;;48.10;12.70;;;;;;;;;;110628;1275;22198;-78
2023/05/27 12:47:35;;;;;;;21.90;8.60;;;;;;;;;;110601;1275;22277;-78
2023/05/27 12:50:03;;;;;;;20.90;8.00;;;;;;;;;;110615;1275;22179;-80
2023/05/27 12:52:30;;;;;;;12.50;3.70;;;;;;;;;;110668;1256;22861;-77
2023/05/27 12:55:10;;;;;;;;;;;;;;;;;;;;;
2023/05/27 12:57:40;;;;;;;13.00;3.10;;;;;;;;;;110586;1275;22169;-78
2023/05/27 13:00:09;;;;;;;11.20;3.50;;;;;;;;;;110541;1275;22097;-79
2023/05/27 13:02:36;;;;;;;11.40;3.10;;;;;;;;;;110701;1256;22349;-79
2023/05/27 13:05:05;;;;;;;12.10;3.60;;;;;;;;;;110588;1275;22240;-78
2023/05/27 13:07:33;;;;;;;12.70;4.40;;;;;;;;;;110552;1275;22115;-77
2023/05/27 13:10:02;;;;;;;14.10;3.40;;;;;;;;;;110593;1275;22220;-76
2023/05/27 13:12:30;;;;;;;11.40;3.70;;;;;;;;;;110721;1256;22210;-77
2023/05/27 13:14:58;;;;;;;10.10;3.00;;;;;;;;;;110576;1275;22831;-78
2023/05/27 13:17:25;;;;;;;12.10;4.10;;;;;;;;;;110568;1275;22170;-78
2023/05/27 13:19:51;;;;;;;10.30;3.30;;;;;;;;;;110574;1275;22303;-76
2023/05/27 13:22:18;;;;;;;13.80;2.90;;;;;;;;;;110653;1256;22096;-77
2023/05/27 13:24:45;;;;;;;13.50;5.80;;;;;;;;;;110566;1275;22116;-78
2023/05/27 13:27:12;;;;;;;10.70;3.20;;;;;;;;;;110573;1275;23010;-79
2023/05/27 13:29:45;;;;;;;11.50;2.80;;;;;;;;;;110612;1275;22113;-81
2023/05/27 13:32:12;;;;;;;13.70;3.10;;;;;;;;;;110375;1257;22679;-76
2023/05/27 13:34:39;;;;;;;12.70;3.90;;;;;;;;;;110563;1275;22083;-76
2023/05/27 13:37:06;;;;;;;8.70;2.80;;;;;;;;;;110557;1275;21990;-76
2023/05/27 13:39:33;;;;;;;10.10;2.90;;;;;;;;;;110594;1275;22228;-78
2023/05/27 13:41:59;;;;;;;12.50;3.00;;;;;;;;;;110751;1253;22108;-76
2023/05/27 13:44:26;;;;;;;10.60;2.80;;;;;;;;;;110620;1275;22144;-77
2023/05/27 13:46:53;;;;;;;12.10;2.70;;;;;;;;;;110606;1275;22109;-76
2023/05/27 13:49:22;;;;;;;10.30;3.10;;;;;;;;;;110642;1275;22192;-79
2023/05/27 13:51:49;;;;;;;16.40;3.90;;;;;;;;;;110615;1254;22141;-76
2023/05/27 14:01:20;;;;;;;10.70;3.60;;;;;;;;;;110244;1280;22151;-76
2023/05/27 14:03:46;;;;;;;10.50;3.20;;;;;;;;;;108039;1261;2897494;-74
2023/05/27 14:06:13;;;;;;;9.70;3.20;;;;;;;;;;110235;1280;22173;-76
2023/05/27 14:08:40;;;;;;;12.20;3.60;;;;;;;;;;110119;1279;22162;-76
2023/05/27 14:11:07;;;;;;;9.50;3.10;;;;;;;;;;110160;1279;22933;-76
2023/05/27 14:13:33;;;;;;;11.70;3.00;;;;;;;;;;110422;1262;22194;-75
2023/05/27 14:16:03;;;;;;;9.30;2.60;;;;;;;;;;110227;1279;22161;-77
2023/05/27 14:18:30;;;;;;;9.60;3.20;;;;;;;;;;110212;1276;22908;-76
2023/05/27 14:20:57;;;;;;;9.20;2.60;;;;;;;;;;110222;1280;22134;-77
2023/05/27 14:23:23;;;;;;;9.60;2.90;;;;;;;;;;110294;1262;22744;-75
2023/05/27 14:25:50;;;;;;;11.80;4.60;;;;;;;;;;110152;1280;22193;-76
2023/05/27 14:28:17;;;;;;;11.50;4.30;;;;;;;;;;110208;1279;22175;-75
2023/05/27 14:30:44;;;;;;;9.50;2.80;;;;;;;;;;110224;1280;22170;-75
2023/05/27 14:33:11;;;;;;;10.10;3.50;;;;;;;;;;110291;1256;22203;-75
2023/05/27 14:35:38;;;;;;;9.90;2.80;;;;;;;;;;110593;1275;22313;-77
2023/05/27 14:38:06;;;;;;;8.60;2.70;;;;;;;;;;110548;1276;22111;-75
2023/05/27 14:40:33;;;;;;;9.10;2.60;;;;;;;;;;110599;1275;22183;-76
2023/05/27 14:43:00;;;;;;;9.90;2.90;;;;;;;;;;110630;1257;22946;-74
2023/05/27 14:45:27;;;;;;;11.00;2.70;;;;;;;;;;110675;1275;22078;-75
2023/05/27 14:47:56;;;;;;;9.50;3.20;;;;;;;;;;110669;1276;22390;-75
2023/05/27 14:50:23;;;;;;;9.40;3.40;;;;;;;;;;110629;1276;22980;-75
2023/05/27 14:52:50;;;;;;;8.90;2.50;;;;;;;;;;110436;1254;22179;-77
2023/05/27 14:55:17;;;;;;;11.10;4.00;;;;;;;;;;110227;1276;22737;-75
2023/05/27 14:57:44;;;;;;;9.50;3.10;;;;;;;;;;110463;1276;22128;-75
2023/05/27 15:00:11;;;;;;;11.10;3.70;;;;;;;;;;110485;1276;22250;-75